sensor_id;sensor_type;location;lat;lon;timestamp;P1;durP1;ratioP1;P2;durP2;ratioP2
72891;SDS011;61032;50.782;6.818;2023-07-02T00:00:21;3.10;;;2.22;;
72891;SDS011;61032;50.782;6.818;2023-07-02T00:01:22;4.45;;;2.00;;
72891;SDS011;61032;50.782;6.818;2023-07-02T00:02:22;2.85;;;1.77;;
72891;SDS011;61032;50.782;6.818;2023-07-02T00:03:23;3.75;;;1.63;;
72891;SDS011;61032;50.782;6.818;2023-07-02T00:04:23;2.60;;;1.70;;
72891;SDS011;61032;50.782;6.818;2023-07-02T00:05:23;3.92;;;1.85;;
72891;SDS011;61032;50.782;6.818;2023-07-02T00:06:24;2.97;;;1.92;;
72891;SDS011;61032;50.782;6.818;2023-07-02T00:07:25;3.70;;;1.80;;
72891;SDS011;61032;50.782;6.818;2023-07-02T00:08:26;3.20;;;1.70;;
72891;SDS011;61032;50.782;6.818;2023-07-02T00:09:26;4.97;;;2.03;;
72891;SDS011;61032;50.782;6.818;2023-07-02T00:10:26;4.60;;;2.13;;
72891;SDS011;61032;50.782;6.818;2023-07-02T00:11:27;2.72;;;2.20;;
72891;SDS011;61032;50.782;6.818;2023-07-02T00:12:27;2.95;;;1.25;;
72891;SDS011;61032;50.782;6.818;2023-07-02T00:13:28;3.97;;;1.73;;
72891;SDS011;61032;50.782;6.818;2023-07-02T00:14:28;4.47;;;2.15;;
72891;SDS011;61032;50.782;6.818;2023-07-02T00:15:28;5.43;;;1.80;;
72891;SDS011;61032;50.782;6.818;2023-07-02T00:16:29;4.38;;;2.03;;
72891;SDS011;61032;50.782;6.818;2023-07-02T00:17:29;5.90;;;2.30;;
72891;SDS011;61032;50.782;6.818;2023-07-02T00:18:30;4.70;;;2.33;;
72891;SDS011;61032;50.782;6.818;2023-07-02T00:19:33;5.68;;;1.70;;
72891;SDS011;61032;50.782;6.818;2023-07-02T00:20:34;2.67;;;1.60;;
72891;SDS011;61032;50.782;6.818;2023-07-02T00:21:38;4.15;;;1.88;;
72891;SDS011;61032;50.782;6.818;2023-07-02T00:22:40;3.38;;;2.10;;
72891;SDS011;61032;50.782;6.818;2023-07-02T00:23:46;3.10;;;1.45;;
72891;SDS011;61032;50.782;6.818;2023-07-02T00:24:47;4.10;;;1.92;;
72891;SDS011;61032;50.782;6.818;2023-07-02T00:25:47;4.07;;;1.83;;
72891;SDS011;61032;50.782;6.818;2023-07-02T00:26:48;4.65;;;2.15;;
72891;SDS011;61032;50.782;6.818;2023-07-02T00:27:49;2.92;;;1.73;;
72891;SDS011;61032;50.782;6.818;2023-07-02T00:28:49;3.50;;;1.90;;
72891;SDS011;61032;50.782;6.818;2023-07-02T00:29:49;5.63;;;2.53;;
72891;SDS011;61032;50.782;6.818;2023-07-02T00:30:50;4.18;;;2.03;;
72891;SDS011;61032;50.782;6.818;2023-07-02T00:31:50;5.93;;;2.63;;
72891;SDS011;61032;50.782;6.818;2023-07-02T00:32:50;5.05;;;2.05;;
72891;SDS011;61032;50.782;6.818;2023-07-02T00:33:51;4.53;;;1.80;;
72891;SDS011;61032;50.782;6.818;2023-07-02T00:34:51;4.15;;;1.70;;
72891;SDS011;61032;50.782;6.818;2023-07-02T00:35:51;4.03;;;1.90;;
72891;SDS011;61032;50.782;6.818;2023-07-02T00:36:52;4.18;;;1.52;;
72891;SDS011;61032;50.782;6.818;2023-07-02T00:37:52;5.28;;;1.80;;
72891;SDS011;61032;50.782;6.818;2023-07-02T00:38:53;4.70;;;1.98;;
72891;SDS011;61032;50.782;6.818;2023-07-02T00:39:53;4.97;;;1.80;;
72891;SDS011;61032;50.782;6.818;2023-07-02T00:40:54;5.05;;;2.10;;
72891;SDS011;61032;50.782;6.818;2023-07-02T00:41:59;4.53;;;2.03;;
72891;SDS011;61032;50.782;6.818;2023-07-02T00:43:00;5.32;;;1.92;;
72891;SDS011;61032;50.782;6.818;2023-07-02T00:44:01;5.97;;;1.85;;
72891;SDS011;61032;50.782;6.818;2023-07-02T00:45:01;3.55;;;2.25;;
72891;SDS011;61032;50.782;6.818;2023-07-02T00:46:05;5.10;;;2.08;;
72891;SDS011;61032;50.782;6.818;2023-07-02T00:47:06;5.30;;;2.10;;
72891;SDS011;61032;50.782;6.818;2023-07-02T00:48:08;5.50;;;1.80;;
72891;SDS011;61032;50.782;6.818;2023-07-02T00:49:08;4.57;;;1.70;;
72891;SDS011;61032;50.782;6.818;2023-07-02T00:50:09;3.63;;;1.92;;
72891;SDS011;61032;50.782;6.818;2023-07-02T00:51:10;5.82;;;2.20;;
72891;SDS011;61032;50.782;6.818;2023-07-02T00:52:14;5.18;;;1.65;;
72891;SDS011;61032;50.782;6.818;2023-07-02T00:53:15;2.47;;;1.60;;
72891;SDS011;61032;50.782;6.818;2023-07-02T00:54:15;6.15;;;2.10;;
72891;SDS011;61032;50.782;6.818;2023-07-02T00:55:16;3.67;;;1.83;;
72891;SDS011;61032;50.782;6.818;2023-07-02T00:56:16;5.40;;;2.25;;
72891;SDS011;61032;50.782;6.818;2023-07-02T00:57:17;7.22;;;2.33;;
72891;SDS011;61032;50.782;6.818;2023-07-02T00:58:17;4.72;;;1.95;;
72891;SDS011;61032;50.782;6.818;2023-07-02T00:59:21;3.85;;;2.05;;
72891;SDS011;61032;50.782;6.818;2023-07-02T01:00:22;4.50;;;2.15;;
72891;SDS011;61032;50.782;6.818;2023-07-02T01:01:23;5.90;;;2.50;;
72891;SDS011;61032;50.782;6.818;2023-07-02T01:02:25;4.85;;;2.55;;
72891;SDS011;61032;50.782;6.818;2023-07-02T01:03:26;5.07;;;2.60;;
72891;SDS011;61032;50.782;6.818;2023-07-02T01:04:27;7.75;;;2.50;;
72891;SDS011;61032;50.782;6.818;2023-07-02T01:05:30;7.63;;;3.10;;
72891;SDS011;61032;50.782;6.818;2023-07-02T01:06:35;6.80;;;2.13;;
72891;SDS011;61032;50.782;6.818;2023-07-02T01:07:40;5.75;;;2.78;;
72891;SDS011;61032;50.782;6.818;2023-07-02T01:08:40;6.25;;;2.97;;
72891;SDS011;61032;50.782;6.818;2023-07-02T01:09:40;7.00;;;2.95;;
72891;SDS011;61032;50.782;6.818;2023-07-02T01:10:41;7.38;;;3.15;;
72891;SDS011;61032;50.782;6.818;2023-07-02T01:11:43;5.53;;;2.70;;
72891;SDS011;61032;50.782;6.818;2023-07-02T01:12:46;6.72;;;3.45;;
72891;SDS011;61032;50.782;6.818;2023-07-02T01:13:48;4.93;;;2.63;;
72891;SDS011;61032;50.782;6.818;2023-07-02T01:14:51;7.63;;;2.72;;
72891;SDS011;61032;50.782;6.818;2023-07-02T01:15:53;8.45;;;3.40;;
72891;SDS011;61032;50.782;6.818;2023-07-02T01:16:55;8.45;;;3.28;;
72891;SDS011;61032;50.782;6.818;2023-07-02T01:17:57;7.93;;;3.05;;
72891;SDS011;61032;50.782;6.818;2023-07-02T01:18:58;9.68;;;2.97;;
72891;SDS011;61032;50.782;6.818;2023-07-02T01:20:04;8.60;;;3.08;;
72891;SDS011;61032;50.782;6.818;2023-07-02T01:21:07;6.28;;;3.10;;
72891;SDS011;61032;50.782;6.818;2023-07-02T01:22:08;9.93;;;3.20;;
72891;SDS011;61032;50.782;6.818;2023-07-02T01:23:09;9.27;;;3.40;;
72891;SDS011;61032;50.782;6.818;2023-07-02T01:24:10;7.53;;;2.90;;
72891;SDS011;61032;50.782;6.818;2023-07-02T01:25:11;11.02;;;3.58;;
72891;SDS011;61032;50.782;6.818;2023-07-02T01:26:11;10.07;;;3.78;;
72891;SDS011;61032;50.782;6.818;2023-07-02T01:27:12;8.05;;;3.55;;
72891;SDS011;61032;50.782;6.818;2023-07-02T01:28:12;6.90;;;3.08;;
72891;SDS011;61032;50.782;6.818;2023-07-02T01:29:17;11.07;;;3.97;;
72891;SDS011;61032;50.782;6.818;2023-07-02T01:30:19;6.75;;;2.72;;
72891;SDS011;61032;50.782;6.818;2023-07-02T01:31:19;9.50;;;3.72;;
72891;SDS011;61032;50.782;6.818;2023-07-02T01:32:25;10.38;;;3.60;;
72891;SDS011;61032;50.782;6.818;2023-07-02T01:33:26;10.13;;;3.85;;
72891;SDS011;61032;50.782;6.818;2023-07-02T01:34:26;8.65;;;3.30;;
72891;SDS011;61032;50.782;6.818;2023-07-02T01:35:26;8.40;;;3.42;;
72891;SDS011;61032;50.782;6.818;2023-07-02T01:36:27;7.32;;;3.78;;
72891;SDS011;61032;50.782;6.818;2023-07-02T01:37:27;9.77;;;4.00;;
72891;SDS011;61032;50.782;6.818;2023-07-02T01:38:27;11.38;;;3.83;;
72891;SDS011;61032;50.782;6.818;2023-07-02T01:39:27;7.65;;;4.07;;
72891;SDS011;61032;50.782;6.818;2023-07-02T01:40:28;9.65;;;4.03;;
72891;SDS011;61032;50.782;6.818;2023-07-02T01:41:28;10.15;;;3.83;;
72891;SDS011;61032;50.782;6.818;2023-07-02T01:42:28;11.38;;;4.75;;
72891;SDS011;61032;50.782;6.818;2023-07-02T01:43:29;8.65;;;3.60;;
72891;SDS011;61032;50.782;6.818;2023-07-02T01:44:29;10.80;;;4.20;;
72891;SDS011;61032;50.782;6.818;2023-07-02T01:45:30;10.43;;;4.05;;
72891;SDS011;61032;50.782;6.818;2023-07-02T01:46:30;11.02;;;3.83;;
72891;SDS011;61032;50.782;6.818;2023-07-02T01:47:31;7.90;;;4.60;;
72891;SDS011;61032;50.782;6.818;2023-07-02T01:48:31;16.20;;;5.30;;
72891;SDS011;61032;50.782;6.818;2023-07-02T01:49:32;9.40;;;3.90;;
72891;SDS011;61032;50.782;6.818;2023-07-02T01:50:32;10.57;;;3.72;;
72891;SDS011;61032;50.782;6.818;2023-07-02T01:51:33;8.88;;;4.18;;
72891;SDS011;61032;50.782;6.818;2023-07-02T01:52:34;7.78;;;3.47;;
72891;SDS011;61032;50.782;6.818;2023-07-02T01:53:34;8.73;;;3.67;;
72891;SDS011;61032;50.782;6.818;2023-07-02T01:54:35;10.80;;;4.28;;
72891;SDS011;61032;50.782;6.818;2023-07-02T01:55:35;9.82;;;4.75;;
72891;SDS011;61032;50.782;6.818;2023-07-02T01:56:36;8.05;;;3.95;;
72891;SDS011;61032;50.782;6.818;2023-07-02T01:57:36;11.52;;;4.60;;
72891;SDS011;61032;50.782;6.818;2023-07-02T01:58:36;8.93;;;4.70;;
72891;SDS011;61032;50.782;6.818;2023-07-02T01:59:37;13.07;;;4.88;;
72891;SDS011;61032;50.782;6.818;2023-07-02T02:00:37;9.63;;;4.15;;
72891;SDS011;61032;50.782;6.818;2023-07-02T02:01:38;8.98;;;5.03;;
72891;SDS011;61032;50.782;6.818;2023-07-02T02:02:42;13.35;;;4.40;;
72891;SDS011;61032;50.782;6.818;2023-07-02T02:03:43;10.45;;;4.30;;
72891;SDS011;61032;50.782;6.818;2023-07-02T02:04:43;10.10;;;4.35;;
72891;SDS011;61032;50.782;6.818;2023-07-02T02:05:43;10.75;;;3.58;;
72891;SDS011;61032;50.782;6.818;2023-07-02T02:06:44;8.43;;;3.90;;
72891;SDS011;61032;50.782;6.818;2023-07-02T02:07:44;11.52;;;4.20;;
72891;SDS011;61032;50.782;6.818;2023-07-02T02:08:44;8.73;;;4.43;;
72891;SDS011;61032;50.782;6.818;2023-07-02T02:09:45;12.13;;;4.63;;
72891;SDS011;61032;50.782;6.818;2023-07-02T02:10:45;13.15;;;4.50;;
72891;SDS011;61032;50.782;6.818;2023-07-02T02:11:47;12.27;;;4.32;;
72891;SDS011;61032;50.782;6.818;2023-07-02T02:12:50;10.23;;;3.88;;
72891;SDS011;61032;50.782;6.818;2023-07-02T02:13:50;12.57;;;4.60;;
72891;SDS011;61032;50.782;6.818;2023-07-02T02:14:50;9.57;;;4.20;;
72891;SDS011;61032;50.782;6.818;2023-07-02T02:15:51;10.85;;;4.88;;
72891;SDS011;61032;50.782;6.818;2023-07-02T02:16:51;16.58;;;4.05;;
72891;SDS011;61032;50.782;6.818;2023-07-02T02:17:52;12.13;;;3.80;;
72891;SDS011;61032;50.782;6.818;2023-07-02T02:18:52;11.10;;;4.60;;
72891;SDS011;61032;50.782;6.818;2023-07-02T02:19:53;12.25;;;5.13;;
72891;SDS011;61032;50.782;6.818;2023-07-02T02:20:54;11.63;;;4.00;;
72891;SDS011;61032;50.782;6.818;2023-07-02T02:21:54;10.43;;;4.47;;
72891;SDS011;61032;50.782;6.818;2023-07-02T02:22:54;9.88;;;4.07;;
72891;SDS011;61032;50.782;6.818;2023-07-02T02:23:55;9.60;;;4.97;;
72891;SDS011;61032;50.782;6.818;2023-07-02T02:24:55;12.23;;;4.18;;
72891;SDS011;61032;50.782;6.818;2023-07-02T02:25:55;10.07;;;4.18;;
72891;SDS011;61032;50.782;6.818;2023-07-02T02:26:56;11.05;;;4.68;;
72891;SDS011;61032;50.782;6.818;2023-07-02T02:27:56;16.00;;;6.13;;
72891;SDS011;61032;50.782;6.818;2023-07-02T02:28:57;11.13;;;4.90;;
72891;SDS011;61032;50.782;6.818;2023-07-02T02:29:57;15.20;;;4.93;;
72891;SDS011;61032;50.782;6.818;2023-07-02T02:30:58;11.23;;;5.05;;
72891;SDS011;61032;50.782;6.818;2023-07-02T02:31:58;14.20;;;5.18;;
72891;SDS011;61032;50.782;6.818;2023-07-02T02:32:58;11.27;;;5.28;;
72891;SDS011;61032;50.782;6.818;2023-07-02T02:33:59;15.35;;;4.90;;
72891;SDS011;61032;50.782;6.818;2023-07-02T02:34:59;14.27;;;4.80;;
72891;SDS011;61032;50.782;6.818;2023-07-02T02:36:00;10.93;;;4.18;;
72891;SDS011;61032;50.782;6.818;2023-07-02T02:37:00;13.13;;;5.25;;
72891;SDS011;61032;50.782;6.818;2023-07-02T02:38:02;10.77;;;4.15;;
72891;SDS011;61032;50.782;6.818;2023-07-02T02:39:03;10.98;;;4.45;;
72891;SDS011;61032;50.782;6.818;2023-07-02T02:40:06;16.05;;;6.00;;
72891;SDS011;61032;50.782;6.818;2023-07-02T02:41:11;13.05;;;5.47;;
72891;SDS011;61032;50.782;6.818;2023-07-02T02:42:11;11.57;;;4.97;;
72891;SDS011;61032;50.782;6.818;2023-07-02T02:43:11;13.05;;;4.63;;
72891;SDS011;61032;50.782;6.818;2023-07-02T02:44:12;13.98;;;5.65;;
72891;SDS011;61032;50.782;6.818;2023-07-02T02:45:12;12.73;;;5.30;;
72891;SDS011;61032;50.782;6.818;2023-07-02T02:46:13;10.15;;;4.43;;
72891;SDS011;61032;50.782;6.818;2023-07-02T02:47:20;13.50;;;4.80;;
72891;SDS011;61032;50.782;6.818;2023-07-02T02:48:20;15.05;;;5.97;;
72891;SDS011;61032;50.782;6.818;2023-07-02T02:49:23;16.58;;;5.32;;
72891;SDS011;61032;50.782;6.818;2023-07-02T02:50:23;14.85;;;5.20;;
72891;SDS011;61032;50.782;6.818;2023-07-02T02:51:24;9.95;;;4.57;;
72891;SDS011;61032;50.782;6.818;2023-07-02T02:52:24;13.85;;;6.35;;
72891;SDS011;61032;50.782;6.818;2023-07-02T02:53:25;9.73;;;5.40;;
72891;SDS011;61032;50.782;6.818;2023-07-02T02:54:25;17.88;;;6.30;;
72891;SDS011;61032;50.782;6.818;2023-07-02T02:55:25;12.15;;;4.32;;
72891;SDS011;61032;50.782;6.818;2023-07-02T02:56:26;11.13;;;5.53;;
72891;SDS011;61032;50.782;6.818;2023-07-02T02:57:26;14.10;;;5.85;;
72891;SDS011;61032;50.782;6.818;2023-07-02T02:58:27;12.73;;;5.72;;
72891;SDS011;61032;50.782;6.818;2023-07-02T02:59:28;11.60;;;4.63;;
72891;SDS011;61032;50.782;6.818;2023-07-02T03:00:29;16.60;;;5.68;;
72891;SDS011;61032;50.782;6.818;2023-07-02T03:01:29;14.88;;;4.97;;
72891;SDS011;61032;50.782;6.818;2023-07-02T03:02:30;13.05;;;5.90;;
72891;SDS011;61032;50.782;6.818;2023-07-02T03:03:31;12.95;;;5.20;;
72891;SDS011;61032;50.782;6.818;2023-07-02T03:04:34;11.20;;;5.40;;
72891;SDS011;61032;50.782;6.818;2023-07-02T03:05:35;14.38;;;5.50;;
72891;SDS011;61032;50.782;6.818;2023-07-02T03:06:35;13.68;;;5.95;;
72891;SDS011;61032;50.782;6.818;2023-07-02T03:07:35;11.25;;;5.85;;
72891;SDS011;61032;50.782;6.818;2023-07-02T03:08:36;14.75;;;6.20;;
72891;SDS011;61032;50.782;6.818;2023-07-02T03:09:36;13.80;;;5.78;;
72891;SDS011;61032;50.782;6.818;2023-07-02T03:10:36;15.63;;;5.43;;
72891;SDS011;61032;50.782;6.818;2023-07-02T03:11:37;15.00;;;7.15;;
72891;SDS011;61032;50.782;6.818;2023-07-02T03:12:38;15.80;;;6.35;;
72891;SDS011;61032;50.782;6.818;2023-07-02T03:13:38;12.82;;;5.45;;
72891;SDS011;61032;50.782;6.818;2023-07-02T03:14:38;13.80;;;5.85;;
72891;SDS011;61032;50.782;6.818;2023-07-02T03:15:39;12.65;;;5.97;;
72891;SDS011;61032;50.782;6.818;2023-07-02T03:16:39;18.15;;;6.40;;
72891;SDS011;61032;50.782;6.818;2023-07-02T03:17:39;16.60;;;5.72;;
72891;SDS011;61032;50.782;6.818;2023-07-02T03:18:40;16.95;;;7.07;;
72891;SDS011;61032;50.782;6.818;2023-07-02T03:19:40;13.68;;;5.20;;
72891;SDS011;61032;50.782;6.818;2023-07-02T03:20:41;17.35;;;6.88;;
72891;SDS011;61032;50.782;6.818;2023-07-02T03:21:42;16.40;;;5.72;;
72891;SDS011;61032;50.782;6.818;2023-07-02T03:22:45;11.80;;;5.32;;
72891;SDS011;61032;50.782;6.818;2023-07-02T03:23:45;13.43;;;6.18;;
72891;SDS011;61032;50.782;6.818;2023-07-02T03:24:46;12.05;;;5.53;;
72891;SDS011;61032;50.782;6.818;2023-07-02T03:25:46;18.50;;;7.07;;
72891;SDS011;61032;50.782;6.818;2023-07-02T03:26:47;15.43;;;5.78;;
72891;SDS011;61032;50.782;6.818;2023-07-02T03:27:48;14.43;;;5.90;;
72891;SDS011;61032;50.782;6.818;2023-07-02T03:28:48;15.18;;;5.88;;
72891;SDS011;61032;50.782;6.818;2023-07-02T03:29:48;16.25;;;5.88;;
72891;SDS011;61032;50.782;6.818;2023-07-02T03:30:49;12.93;;;6.78;;
72891;SDS011;61032;50.782;6.818;2023-07-02T03:31:49;18.20;;;6.30;;
72891;SDS011;61032;50.782;6.818;2023-07-02T03:32:49;13.88;;;6.13;;
72891;SDS011;61032;50.782;6.818;2023-07-02T03:33:49;14.55;;;6.15;;
72891;SDS011;61032;50.782;6.818;2023-07-02T03:34:50;17.38;;;6.30;;
72891;SDS011;61032;50.782;6.818;2023-07-02T03:35:50;14.40;;;6.95;;
72891;SDS011;61032;50.782;6.818;2023-07-02T03:36:50;17.92;;;6.32;;
72891;SDS011;61032;50.782;6.818;2023-07-02T03:37:50;12.73;;;6.13;;
72891;SDS011;61032;50.782;6.818;2023-07-02T03:38:51;18.35;;;6.43;;
72891;SDS011;61032;50.782;6.818;2023-07-02T03:39:52;14.88;;;5.78;;
72891;SDS011;61032;50.782;6.818;2023-07-02T03:40:52;16.63;;;5.88;;
72891;SDS011;61032;50.782;6.818;2023-07-02T03:41:56;18.63;;;7.40;;
72891;SDS011;61032;50.782;6.818;2023-07-02T03:42:56;15.43;;;6.32;;
72891;SDS011;61032;50.782;6.818;2023-07-02T03:43:56;14.25;;;5.18;;
72891;SDS011;61032;50.782;6.818;2023-07-02T03:44:57;16.75;;;6.57;;
72891;SDS011;61032;50.782;6.818;2023-07-02T03:45:57;20.90;;;7.82;;
72891;SDS011;61032;50.782;6.818;2023-07-02T03:46:58;22.55;;;7.47;;
72891;SDS011;61032;50.782;6.818;2023-07-02T03:47:58;19.17;;;7.30;;
72891;SDS011;61032;50.782;6.818;2023-07-02T03:48:59;19.77;;;8.07;;
72891;SDS011;61032;50.782;6.818;2023-07-02T03:49:59;17.75;;;7.30;;
72891;SDS011;61032;50.782;6.818;2023-07-02T03:51:01;15.95;;;6.63;;
72891;SDS011;61032;50.782;6.818;2023-07-02T03:52:02;17.70;;;6.65;;
72891;SDS011;61032;50.782;6.818;2023-07-02T03:53:02;15.85;;;7.28;;
72891;SDS011;61032;50.782;6.818;2023-07-02T03:54:03;20.25;;;7.65;;
72891;SDS011;61032;50.782;6.818;2023-07-02T03:55:04;19.30;;;7.82;;
72891;SDS011;61032;50.782;6.818;2023-07-02T03:56:04;16.85;;;6.97;;
72891;SDS011;61032;50.782;6.818;2023-07-02T03:57:05;16.13;;;7.50;;
72891;SDS011;61032;50.782;6.818;2023-07-02T03:58:05;23.63;;;8.30;;
72891;SDS011;61032;50.782;6.818;2023-07-02T03:59:06;15.65;;;6.82;;
72891;SDS011;61032;50.782;6.818;2023-07-02T04:00:06;18.17;;;7.88;;
72891;SDS011;61032;50.782;6.818;2023-07-02T04:01:07;19.48;;;7.13;;
72891;SDS011;61032;50.782;6.818;2023-07-02T04:02:08;19.60;;;7.05;;
72891;SDS011;61032;50.782;6.818;2023-07-02T04:03:08;20.85;;;8.05;;
72891;SDS011;61032;50.782;6.818;2023-07-02T04:04:09;17.65;;;6.88;;
72891;SDS011;61032;50.782;6.818;2023-07-02T04:05:09;21.52;;;7.45;;
72891;SDS011;61032;50.782;6.818;2023-07-02T04:06:10;19.10;;;8.05;;
72891;SDS011;61032;50.782;6.818;2023-07-02T04:07:10;20.50;;;7.50;;
72891;SDS011;61032;50.782;6.818;2023-07-02T04:08:10;21.38;;;8.40;;
72891;SDS011;61032;50.782;6.818;2023-07-02T04:09:11;18.50;;;7.50;;
72891;SDS011;61032;50.782;6.818;2023-07-02T04:10:11;19.33;;;7.38;;
72891;SDS011;61032;50.782;6.818;2023-07-02T04:11:12;20.02;;;7.93;;
72891;SDS011;61032;50.782;6.818;2023-07-02T04:12:12;20.10;;;8.90;;
72891;SDS011;61032;50.782;6.818;2023-07-02T04:13:12;17.15;;;7.82;;
72891;SDS011;61032;50.782;6.818;2023-07-02T04:14:13;18.05;;;8.95;;
72891;SDS011;61032;50.782;6.818;2023-07-02T04:15:13;20.33;;;9.07;;
72891;SDS011;61032;50.782;6.818;2023-07-02T04:16:13;16.58;;;7.32;;
72891;SDS011;61032;50.782;6.818;2023-07-02T04:17:14;19.00;;;8.68;;
72891;SDS011;61032;50.782;6.818;2023-07-02T04:18:14;18.33;;;8.45;;
72891;SDS011;61032;50.782;6.818;2023-07-02T04:19:14;22.85;;;8.45;;
72891;SDS011;61032;50.782;6.818;2023-07-02T04:20:15;20.05;;;9.27;;
72891;SDS011;61032;50.782;6.818;2023-07-02T04:21:15;21.48;;;8.40;;
72891;SDS011;61032;50.782;6.818;2023-07-02T04:22:15;22.25;;;9.40;;
72891;SDS011;61032;50.782;6.818;2023-07-02T04:23:16;21.77;;;9.57;;
72891;SDS011;61032;50.782;6.818;2023-07-02T04:24:17;23.48;;;9.82;;
72891;SDS011;61032;50.782;6.818;2023-07-02T04:25:17;24.50;;;9.45;;
72891;SDS011;61032;50.782;6.818;2023-07-02T04:26:18;18.95;;;8.25;;
72891;SDS011;61032;50.782;6.818;2023-07-02T04:27:18;23.95;;;8.48;;
72891;SDS011;61032;50.782;6.818;2023-07-02T04:28:18;25.58;;;10.45;;
72891;SDS011;61032;50.782;6.818;2023-07-02T04:29:19;22.58;;;9.65;;
72891;SDS011;61032;50.782;6.818;2023-07-02T04:30:20;21.75;;;10.18;;
72891;SDS011;61032;50.782;6.818;2023-07-02T04:31:21;23.13;;;8.38;;
72891;SDS011;61032;50.782;6.818;2023-07-02T04:32:21;21.30;;;10.02;;
72891;SDS011;61032;50.782;6.818;2023-07-02T04:33:22;21.35;;;9.02;;
72891;SDS011;61032;50.782;6.818;2023-07-02T04:34:22;20.35;;;10.45;;
72891;SDS011;61032;50.782;6.818;2023-07-02T04:35:23;20.10;;;9.38;;
72891;SDS011;61032;50.782;6.818;2023-07-02T04:36:23;25.38;;;9.45;;
72891;SDS011;61032;50.782;6.818;2023-07-02T04:37:23;20.15;;;9.98;;
72891;SDS011;61032;50.782;6.818;2023-07-02T04:38:23;23.58;;;9.05;;
72891;SDS011;61032;50.782;6.818;2023-07-02T04:39:24;21.73;;;9.00;;
72891;SDS011;61032;50.782;6.818;2023-07-02T04:40:25;25.13;;;11.38;;
72891;SDS011;61032;50.782;6.818;2023-07-02T04:41:26;18.65;;;8.48;;
72891;SDS011;61032;50.782;6.818;2023-07-02T04:42:26;23.08;;;9.93;;
72891;SDS011;61032;50.782;6.818;2023-07-02T04:43:32;23.08;;;8.90;;
72891;SDS011;61032;50.782;6.818;2023-07-02T04:44:33;19.35;;;10.35;;
72891;SDS011;61032;50.782;6.818;2023-07-02T04:45:33;28.80;;;10.80;;
72891;SDS011;61032;50.782;6.818;2023-07-02T04:46:36;23.45;;;9.30;;
72891;SDS011;61032;50.782;6.818;2023-07-02T04:47:36;27.90;;;11.02;;
72891;SDS011;61032;50.782;6.818;2023-07-02T04:48:37;27.10;;;9.77;;
72891;SDS011;61032;50.782;6.818;2023-07-02T04:49:38;27.30;;;10.60;;
72891;SDS011;61032;50.782;6.818;2023-07-02T04:50:39;24.95;;;11.63;;
72891;SDS011;61032;50.782;6.818;2023-07-02T04:51:41;23.52;;;10.95;;
72891;SDS011;61032;50.782;6.818;2023-07-02T04:52:42;23.02;;;9.40;;
72891;SDS011;61032;50.782;6.818;2023-07-02T04:53:43;24.75;;;10.05;;
72891;SDS011;61032;50.782;6.818;2023-07-02T04:54:43;27.50;;;11.98;;
72891;SDS011;61032;50.782;6.818;2023-07-02T04:55:43;27.73;;;12.82;;
72891;SDS011;61032;50.782;6.818;2023-07-02T04:56:44;29.48;;;10.13;;
72891;SDS011;61032;50.782;6.818;2023-07-02T04:57:44;26.33;;;10.82;;
72891;SDS011;61032;50.782;6.818;2023-07-02T04:58:44;24.52;;;11.68;;
72891;SDS011;61032;50.782;6.818;2023-07-02T04:59:45;22.33;;;10.52;;
72891;SDS011;61032;50.782;6.818;2023-07-02T05:00:45;26.50;;;9.98;;
72891;SDS011;61032;50.782;6.818;2023-07-02T05:01:46;30.67;;;10.00;;
72891;SDS011;61032;50.782;6.818;2023-07-02T05:02:46;25.85;;;10.50;;
72891;SDS011;61032;50.782;6.818;2023-07-02T05:03:46;28.98;;;11.40;;
72891;SDS011;61032;50.782;6.818;2023-07-02T05:04:47;23.55;;;11.02;;
72891;SDS011;61032;50.782;6.818;2023-07-02T05:05:48;26.65;;;11.10;;
72891;SDS011;61032;50.782;6.818;2023-07-02T05:06:48;30.02;;;12.85;;
72891;SDS011;61032;50.782;6.818;2023-07-02T05:07:48;22.10;;;11.60;;
72891;SDS011;61032;50.782;6.818;2023-07-02T05:08:48;26.65;;;10.75;;
72891;SDS011;61032;50.782;6.818;2023-07-02T05:09:49;26.83;;;11.65;;
72891;SDS011;61032;50.782;6.818;2023-07-02T05:10:51;25.73;;;12.45;;
72891;SDS011;61032;50.782;6.818;2023-07-02T05:11:52;31.00;;;13.20;;
72891;SDS011;61032;50.782;6.818;2023-07-02T05:12:52;28.60;;;12.93;;
72891;SDS011;61032;50.782;6.818;2023-07-02T05:13:52;29.77;;;11.90;;
72891;SDS011;61032;50.782;6.818;2023-07-02T05:14:53;28.05;;;11.50;;
72891;SDS011;61032;50.782;6.818;2023-07-02T05:15:53;28.55;;;11.55;;
72891;SDS011;61032;50.782;6.818;2023-07-02T05:16:53;24.60;;;10.95;;
72891;SDS011;61032;50.782;6.818;2023-07-02T05:17:54;29.23;;;12.45;;
72891;SDS011;61032;50.782;6.818;2023-07-02T05:18:54;30.08;;;13.52;;
72891;SDS011;61032;50.782;6.818;2023-07-02T05:19:54;33.30;;;13.50;;
72891;SDS011;61032;50.782;6.818;2023-07-02T05:20:55;28.23;;;12.50;;
72891;SDS011;61032;50.782;6.818;2023-07-02T05:21:55;30.33;;;12.93;;
72891;SDS011;61032;50.782;6.818;2023-07-02T05:22:56;27.77;;;13.07;;
72891;SDS011;61032;50.782;6.818;2023-07-02T05:23:56;27.40;;;12.60;;
72891;SDS011;61032;50.782;6.818;2023-07-02T05:24:56;32.45;;;14.63;;
72891;SDS011;61032;50.782;6.818;2023-07-02T05:25:57;30.08;;;12.98;;
72891;SDS011;61032;50.782;6.818;2023-07-02T05:26:57;29.45;;;11.85;;
72891;SDS011;61032;50.782;6.818;2023-07-02T05:27:57;26.73;;;11.95;;
72891;SDS011;61032;50.782;6.818;2023-07-02T05:28:58;32.47;;;12.02;;
72891;SDS011;61032;50.782;6.818;2023-07-02T05:29:58;29.90;;;13.30;;
72891;SDS011;61032;50.782;6.818;2023-07-02T05:30:58;26.20;;;12.25;;
72891;SDS011;61032;50.782;6.818;2023-07-02T05:31:59;27.92;;;11.48;;
72891;SDS011;61032;50.782;6.818;2023-07-02T05:32:59;31.13;;;13.07;;
72891;SDS011;61032;50.782;6.818;2023-07-02T05:34:00;28.38;;;12.32;;
72891;SDS011;61032;50.782;6.818;2023-07-02T05:35:00;30.15;;;13.98;;
72891;SDS011;61032;50.782;6.818;2023-07-02T05:36:00;29.30;;;12.48;;
72891;SDS011;61032;50.782;6.818;2023-07-02T05:37:01;32.70;;;12.82;;
72891;SDS011;61032;50.782;6.818;2023-07-02T05:38:01;25.55;;;12.00;;
72891;SDS011;61032;50.782;6.818;2023-07-02T05:39:02;31.38;;;12.48;;
72891;SDS011;61032;50.782;6.818;2023-07-02T05:40:02;31.52;;;13.43;;
72891;SDS011;61032;50.782;6.818;2023-07-02T05:41:04;29.20;;;11.90;;
72891;SDS011;61032;50.782;6.818;2023-07-02T05:42:04;35.92;;;11.93;;
72891;SDS011;61032;50.782;6.818;2023-07-02T05:43:05;26.90;;;11.90;;
72891;SDS011;61032;50.782;6.818;2023-07-02T05:44:05;26.63;;;11.48;;
72891;SDS011;61032;50.782;6.818;2023-07-02T05:45:05;29.35;;;12.18;;
72891;SDS011;61032;50.782;6.818;2023-07-02T05:46:06;30.25;;;12.27;;
72891;SDS011;61032;50.782;6.818;2023-07-02T05:47:06;29.17;;;10.98;;
72891;SDS011;61032;50.782;6.818;2023-07-02T05:48:06;32.75;;;13.50;;
72891;SDS011;61032;50.782;6.818;2023-07-02T05:49:07;30.55;;;12.88;;
72891;SDS011;61032;50.782;6.818;2023-07-02T05:50:07;25.20;;;10.45;;
72891;SDS011;61032;50.782;6.818;2023-07-02T05:51:09;31.33;;;12.85;;
72891;SDS011;61032;50.782;6.818;2023-07-02T05:52:09;25.23;;;11.88;;
72891;SDS011;61032;50.782;6.818;2023-07-02T05:53:10;32.40;;;11.48;;
72891;SDS011;61032;50.782;6.818;2023-07-02T05:54:10;29.90;;;11.95;;
72891;SDS011;61032;50.782;6.818;2023-07-02T05:55:11;31.00;;;11.55;;
72891;SDS011;61032;50.782;6.818;2023-07-02T05:56:11;32.50;;;11.88;;
72891;SDS011;61032;50.782;6.818;2023-07-02T05:57:12;27.75;;;11.40;;
72891;SDS011;61032;50.782;6.818;2023-07-02T05:58:12;29.08;;;11.68;;
72891;SDS011;61032;50.782;6.818;2023-07-02T05:59:13;32.80;;;12.32;;
72891;SDS011;61032;50.782;6.818;2023-07-02T06:00:17;27.67;;;12.15;;
72891;SDS011;61032;50.782;6.818;2023-07-02T06:01:18;29.85;;;11.13;;